createdAt,value
2018-10-05T00:00:10.978Z,9.57
2018-10-05T00:02:39.396Z,10.73
2018-10-05T00:05:08.028Z,11.07
2018-10-05T00:07:36.518Z,11.30
2018-10-05T00:10:05.079Z,8.63
2018-10-05T00:12:33.971Z,8.77
2018-10-05T00:15:02.548Z,11.43
2018-10-05T00:17:30.992Z,10.17
2018-10-05T00:19:59.409Z,8.87
2018-10-05T00:22:27.930Z,9.77
2018-10-05T00:24:56.376Z,8.87
2018-10-05T00:27:24.847Z,11.87
2018-10-05T00:29:53.306Z,13.07
2018-10-05T00:32:21.897Z,11.63
2018-10-05T00:34:50.362Z,10.80
2018-10-05T00:37:18.828Z,7.73
2018-10-05T00:39:47.280Z,10.67
2018-10-05T00:42:15.733Z,11.83
2018-10-05T00:44:44.199Z,9.23
2018-10-05T00:47:12.627Z,9.33
2018-10-05T00:49:41.059Z,12.50
2018-10-05T00:52:09.667Z,13.07
2018-10-05T00:54:38.106Z,9.93
2018-10-05T00:57:06.586Z,13.30
2018-10-05T00:59:35.097Z,9.50
2018-10-05T01:02:03.577Z,12.30
2018-10-05T01:04:32.024Z,9.77
2018-10-05T01:07:00.466Z,9.10
2018-10-05T01:09:28.901Z,9.60
2018-10-05T01:11:57.381Z,9.70
2018-10-05T01:14:25.801Z,10.30
2018-10-05T01:16:54.245Z,10.70
2018-10-05T01:19:22.741Z,11.73
2018-10-05T01:21:51.179Z,8.53
2018-10-05T01:24:19.718Z,7.83
2018-10-05T01:26:48.313Z,8.87
2018-10-05T01:29:16.788Z,9.17
2018-10-05T01:31:45.308Z,12.47
2018-10-05T01:34:13.755Z,10.37
2018-10-05T01:36:42.271Z,7.87
2018-10-05T01:39:10.723Z,10.10
2018-10-05T01:41:39.156Z,9.90
2018-10-05T01:44:07.620Z,13.07
2018-10-05T01:46:36.100Z,9.00
2018-10-05T01:49:04.572Z,7.87
2018-10-05T01:51:37.858Z,10.50
2018-10-05T01:54:07.167Z,8.90
2018-10-05T01:56:36.108Z,9.10
2018-10-05T01:59:04.678Z,10.97
2018-10-05T02:01:34.013Z,12.17
2018-10-05T02:04:02.570Z,8.97
2018-10-05T02:06:31.075Z,8.83
2018-10-05T02:08:59.521Z,11.07
2018-10-05T02:11:28.026Z,14.27
2018-10-05T02:13:56.466Z,9.23
2018-10-05T02:16:25.014Z,8.93
2018-10-05T02:18:53.503Z,9.40
2018-10-05T02:21:21.958Z,8.97
2018-10-05T02:23:50.412Z,11.97
2018-10-05T02:26:18.864Z,9.37
2018-10-05T02:28:47.348Z,11.37
2018-10-05T02:31:15.853Z,11.07
2018-10-05T02:33:44.318Z,11.50
2018-10-05T02:36:13.488Z,11.30
2018-10-05T02:38:42.138Z,10.57
2018-10-05T02:41:10.644Z,10.27
2018-10-05T02:46:13.964Z,9.13
2018-10-05T02:48:42.460Z,10.33
2018-10-05T02:51:11.003Z,10.43
2018-10-05T02:53:39.733Z,9.87
2018-10-05T02:56:08.256Z,13.17
2018-10-05T02:58:36.786Z,10.93
2018-10-05T03:01:16.567Z,11.63
2018-10-05T03:03:45.117Z,16.00
2018-10-05T03:06:13.580Z,11.43
2018-10-05T03:08:42.025Z,8.67
2018-10-05T03:11:10.587Z,11.10
2018-10-05T03:13:39.034Z,11.20
2018-10-05T03:16:07.622Z,13.63
2018-10-05T03:18:36.875Z,13.00
2018-10-05T03:21:05.413Z,12.67
2018-10-05T03:23:34.907Z,11.43
2018-10-05T03:26:03.708Z,14.57
2018-10-05T03:28:32.180Z,10.93
2018-10-05T03:31:07.306Z,13.90
2018-10-05T03:33:35.775Z,10.10
2018-10-05T03:36:04.247Z,12.90
2018-10-05T03:38:32.712Z,11.17
2018-10-05T03:41:03.011Z,10.90
2018-10-05T03:43:31.906Z,12.43
2018-10-05T03:46:00.408Z,12.33
2018-10-05T03:48:28.903Z,11.13
2018-10-05T03:50:57.339Z,9.90
2018-10-05T03:53:25.872Z,13.60
2018-10-05T03:55:55.335Z,9.47
2018-10-05T03:58:23.830Z,13.70
2018-10-05T04:00:52.290Z,14.07
2018-10-05T04:03:20.811Z,10.07
2018-10-05T04:05:49.298Z,10.30
2018-10-05T04:08:17.777Z,12.23
2018-10-05T04:10:46.368Z,12.63
2018-10-05T04:13:15.248Z,10.27
2018-10-05T04:15:43.754Z,12.60
2018-10-05T04:18:12.292Z,13.47
2018-10-05T04:20:40.928Z,14.53
2018-10-05T04:23:09.921Z,10.20
2018-10-05T04:25:38.460Z,12.67
2018-10-05T04:28:07.513Z,10.93
2018-10-05T04:30:36.056Z,14.93
2018-10-05T04:33:04.529Z,10.77
2018-10-05T04:35:34.375Z,13.07
2018-10-05T04:38:03.244Z,15.33
2018-10-05T04:40:31.789Z,14.57
2018-10-05T04:43:00.266Z,12.20
2018-10-05T04:45:28.775Z,11.70
2018-10-05T04:47:57.364Z,13.00
2018-10-05T04:50:25.846Z,11.50
2018-10-05T04:52:54.447Z,10.87
2018-10-05T04:55:23.005Z,10.93
2018-10-05T04:57:51.488Z,11.97
2018-10-05T05:00:20.097Z,12.77
2018-10-05T05:02:48.528Z,10.33
2018-10-05T05:05:17.270Z,13.17
2018-10-05T05:07:45.733Z,14.83
2018-10-05T05:10:14.208Z,13.13
2018-10-05T05:12:42.828Z,11.40
2018-10-05T05:15:11.618Z,11.63
2018-10-05T05:17:40.201Z,10.57
2018-10-05T05:20:08.677Z,12.23
2018-10-05T05:22:37.143Z,16.40
2018-10-05T05:25:05.609Z,14.23
2018-10-05T05:27:34.237Z,15.00
2018-10-05T05:30:02.668Z,12.97
2018-10-05T05:32:31.701Z,15.57
2018-10-05T05:35:00.185Z,12.33
2018-10-05T05:37:28.651Z,13.93
2018-10-05T05:39:58.020Z,10.23
2018-10-05T05:42:26.442Z,10.50
2018-10-05T05:44:54.978Z,16.57
2018-10-05T05:47:23.543Z,13.40
2018-10-05T05:49:52.360Z,10.40
2018-10-05T05:52:20.856Z,13.60
2018-10-05T05:54:49.360Z,12.90
2018-10-05T05:57:17.852Z,11.17
2018-10-05T05:59:46.416Z,11.10
2018-10-05T06:02:14.993Z,8.43
2018-10-05T06:04:44.077Z,8.67
2018-10-05T06:07:12.544Z,13.07
2018-10-05T06:09:41.018Z,8.93
2018-10-05T06:12:09.501Z,9.33
2018-10-05T06:14:38.146Z,9.57
2018-10-05T06:17:06.652Z,9.53
2018-10-05T06:19:35.146Z,8.80
2018-10-05T06:22:03.719Z,7.80
2018-10-05T06:24:32.125Z,9.47
2018-10-05T06:27:00.676Z,7.83
2018-10-05T06:29:29.181Z,8.70
2018-10-05T06:31:57.681Z,8.83
2018-10-05T06:34:26.168Z,7.23
2018-10-05T06:36:54.646Z,6.83
2018-10-05T06:39:23.129Z,10.13
2018-10-05T06:41:51.715Z,11.00
2018-10-05T06:44:20.251Z,7.93
2018-10-05T06:46:48.725Z,8.40
2018-10-05T06:49:17.229Z,8.23
2018-10-05T06:51:45.690Z,5.47
2018-10-05T06:54:14.212Z,7.07
2018-10-05T06:56:42.659Z,6.80
2018-10-05T06:59:11.382Z,7.17
2018-10-05T07:01:39.861Z,9.10
2018-10-05T07:04:08.503Z,7.60
2018-10-05T07:06:37.013Z,6.53
2018-10-05T07:09:06.566Z,7.53
2018-10-05T07:11:35.095Z,7.27
2018-10-05T07:14:04.337Z,7.23
2018-10-05T07:16:32.874Z,5.07
2018-10-05T07:19:01.368Z,7.40
2018-10-05T07:21:30.033Z,5.70
2018-10-05T07:23:58.582Z,6.00
2018-10-05T07:26:27.061Z,6.17
2018-10-05T07:28:55.540Z,6.50
2018-10-05T07:31:24.026Z,6.70
2018-10-05T07:33:52.634Z,5.67
2018-10-05T07:36:21.098Z,8.40
2018-10-05T07:38:49.735Z,7.27
2018-10-05T07:41:18.227Z,5.03
2018-10-05T07:43:46.721Z,7.47
2018-10-05T07:46:15.500Z,6.77
2018-10-05T07:48:45.767Z,5.50
2018-10-05T07:51:14.226Z,7.20
2018-10-05T07:53:42.692Z,6.93
2018-10-05T07:56:11.127Z,5.77
2018-10-05T07:58:46.224Z,9.13
2018-10-05T08:01:14.650Z,8.50
2018-10-05T08:03:43.103Z,6.73
2018-10-05T08:06:11.568Z,8.60
2018-10-05T08:08:40.034Z,16.70
2018-10-05T08:11:08.674Z,9.30
2018-10-05T08:13:37.267Z,7.27
2018-10-05T08:16:05.736Z,8.53
2018-10-05T08:18:34.240Z,5.13
2018-10-05T08:21:02.715Z,4.50
2018-10-05T08:23:31.920Z,7.97
2018-10-05T08:26:00.499Z,6.17
2018-10-05T08:28:29.010Z,3.63
2018-10-05T08:30:57.473Z,5.57
2018-10-05T08:33:26.056Z,6.00
2018-10-05T08:35:54.520Z,4.50
2018-10-05T08:38:22.995Z,5.77
2018-10-05T08:40:51.657Z,7.17
2018-10-05T08:43:20.228Z,8.23
2018-10-05T08:45:48.789Z,7.97
2018-10-05T08:48:17.233Z,6.77
2018-10-05T08:50:45.724Z,6.13
2018-10-05T08:53:14.259Z,6.03
2018-10-05T08:55:42.741Z,10.13
2018-10-05T08:58:11.208Z,9.87
2018-10-05T09:00:39.670Z,6.03
2018-10-05T09:03:08.205Z,9.97
2018-10-05T09:05:36.732Z,8.00
2018-10-05T09:08:05.298Z,4.83
2018-10-05T09:10:33.809Z,8.30
2018-10-05T09:13:03.232Z,5.10
2018-10-05T09:15:31.718Z,6.80
2018-10-05T09:18:00.650Z,6.70
2018-10-05T09:20:29.214Z,6.40
2018-10-05T09:22:57.943Z,5.47
2018-10-05T09:25:26.430Z,8.00
2018-10-05T09:27:54.984Z,5.65
2018-10-05T09:30:23.451Z,8.28
2018-10-05T09:32:51.906Z,7.20
2018-10-05T09:35:20.383Z,6.25
2018-10-05T09:37:49.082Z,8.80
2018-10-05T09:40:17.598Z,5.47
2018-10-05T09:42:46.210Z,5.97
2018-10-05T09:45:14.849Z,6.22
2018-10-05T09:47:43.301Z,4.45
2018-10-05T09:50:11.781Z,6.95
2018-10-05T09:52:40.800Z,7.37
2018-10-05T09:55:09.659Z,5.17
2018-10-05T09:57:38.106Z,5.30
2018-10-05T10:00:06.719Z,7.05
2018-10-05T10:02:40.665Z,6.50
2018-10-05T10:05:09.329Z,4.62
2018-10-05T10:07:37.800Z,4.65
2018-10-05T10:10:06.364Z,6.60
2018-10-05T10:12:34.830Z,8.23
2018-10-05T10:15:03.283Z,6.67
2018-10-05T10:17:31.813Z,7.72
2018-10-05T10:20:01.007Z,8.23
2018-10-05T10:22:29.518Z,5.55
2018-10-05T10:24:57.950Z,6.87
2018-10-05T10:27:26.408Z,8.15
2018-10-05T10:29:54.878Z,5.97
2018-10-05T10:32:23.450Z,4.33
2018-10-05T10:34:51.910Z,6.90
2018-10-05T10:37:20.467Z,8.30
2018-10-05T10:39:48.984Z,6.78
2018-10-05T10:42:17.517Z,4.00
2018-10-05T10:44:46.024Z,5.55
2018-10-05T10:47:14.525Z,5.22
2018-10-05T10:49:43.012Z,3.75
2018-10-05T10:52:11.573Z,5.55
2018-10-05T10:54:40.077Z,3.62
2018-10-05T10:57:08.549Z,4.60
2018-10-05T10:59:37.031Z,4.90
2018-10-05T11:02:05.535Z,4.28
2018-10-05T11:04:34.098Z,2.58
2018-10-05T11:07:02.552Z,3.65
2018-10-05T11:09:31.040Z,3.33
2018-10-05T11:11:59.487Z,2.25
2018-10-05T11:14:27.929Z,4.40
2018-10-05T11:16:56.460Z,3.17
2018-10-05T11:19:24.903Z,3.30
2018-10-05T11:21:53.471Z,3.22
2018-10-05T11:24:21.918Z,2.92
2018-10-05T11:26:50.396Z,2.45
2018-10-05T11:29:18.962Z,2.50
2018-10-05T11:31:47.441Z,1.67
2018-10-05T11:34:16.131Z,2.90
2018-10-05T11:36:44.559Z,4.47
2018-10-05T11:39:13.105Z,4.00
2018-10-05T11:41:41.558Z,4.20
2018-10-05T11:44:09.992Z,3.63
2018-10-05T11:46:38.467Z,3.57
2018-10-05T11:49:06.994Z,3.37
2018-10-05T11:51:35.506Z,3.13
2018-10-05T11:54:04.014Z,3.60
2018-10-05T11:56:32.496Z,6.30
2018-10-05T11:59:01.060Z,2.93
2018-10-05T12:01:29.989Z,4.97
2018-10-05T12:03:58.450Z,2.70
2018-10-05T12:06:26.978Z,3.83
2018-10-05T12:08:55.416Z,5.77
2018-10-05T12:11:23.991Z,6.83
2018-10-05T12:13:52.642Z,5.73
2018-10-05T12:16:21.163Z,5.03
2018-10-05T12:18:49.680Z,4.97
2018-10-05T12:21:18.135Z,4.70
2018-10-05T12:23:46.589Z,7.03
2018-10-05T12:26:15.040Z,8.50
2018-10-05T12:28:43.599Z,3.80
2018-10-05T12:31:12.087Z,3.60
2018-10-05T12:33:40.593Z,5.07
2018-10-05T12:36:09.022Z,5.47
2018-10-05T12:38:37.482Z,3.42
2018-10-05T12:41:06.346Z,3.70
2018-10-05T12:43:34.813Z,5.67
2018-10-05T12:46:03.933Z,4.20
2018-10-05T12:48:32.464Z,7.47
2018-10-05T12:51:00.953Z,4.80
2018-10-05T12:53:29.404Z,2.80
2018-10-05T12:55:57.906Z,4.30
2018-10-05T12:58:26.383Z,5.93
2018-10-05T13:00:54.870Z,9.40
2018-10-05T13:03:23.306Z,18.37
2018-10-05T13:05:51.896Z,8.83
2018-10-05T13:08:20.467Z,4.57
2018-10-05T13:10:48.924Z,8.40
2018-10-05T13:13:17.408Z,10.50
2018-10-05T13:15:46.004Z,6.73
2018-10-05T13:18:14.550Z,8.73
2018-10-05T13:20:43.120Z,12.27
2018-10-05T13:23:11.605Z,6.27
2018-10-05T13:25:40.055Z,4.17
2018-10-05T13:28:08.829Z,8.13
2018-10-05T13:30:37.384Z,8.03
2018-10-05T13:33:06.035Z,6.37
2018-10-05T13:35:34.529Z,6.87
2018-10-05T13:38:03.084Z,6.37
2018-10-05T13:40:31.713Z,8.47
2018-10-05T13:43:00.173Z,6.67
2018-10-05T13:45:28.632Z,4.80
2018-10-05T13:47:57.187Z,5.03
2018-10-05T13:50:25.637Z,7.60
2018-10-05T13:52:54.127Z,5.90
2018-10-05T13:55:22.727Z,3.50
2018-10-05T13:57:51.308Z,4.77
2018-10-05T14:00:19.765Z,5.13
2018-10-05T14:02:48.336Z,6.87
2018-10-05T14:05:16.999Z,5.67
2018-10-05T14:07:45.695Z,4.17
2018-10-05T14:10:14.200Z,5.47
2018-10-05T14:12:42.746Z,4.47
2018-10-05T14:15:11.204Z,8.83
2018-10-05T14:17:39.707Z,4.87
2018-10-05T14:20:08.233Z,5.00
2018-10-05T14:22:36.799Z,6.63
2018-10-05T14:25:05.293Z,11.00
2018-10-05T14:27:33.796Z,9.07
2018-10-05T14:30:02.284Z,6.53
2018-10-05T14:32:30.773Z,4.87
2018-10-05T14:34:59.288Z,6.20
2018-10-05T14:37:27.923Z,6.23
2018-10-05T14:39:56.489Z,5.97
2018-10-05T14:42:25.001Z,6.53
2018-10-05T14:44:53.576Z,5.90
2018-10-05T14:47:22.265Z,10.10
2018-10-05T14:49:50.837Z,6.20
2018-10-05T14:52:26.929Z,6.77
2018-10-05T14:54:56.220Z,5.27
2018-10-05T14:57:24.804Z,12.63
2018-10-05T14:59:54.209Z,6.57
2018-10-05T15:02:22.730Z,6.63
2018-10-05T15:04:51.277Z,9.33
2018-10-05T15:07:19.773Z,6.40
2018-10-05T15:09:48.263Z,3.53
2018-10-05T15:12:16.840Z,6.20
2018-10-05T15:14:45.392Z,7.47
2018-10-05T15:17:13.939Z,5.47
2018-10-05T15:19:42.576Z,6.10
2018-10-05T15:22:11.292Z,4.60
2018-10-05T15:24:40.063Z,7.27
2018-10-05T15:27:09.288Z,7.03
2018-10-05T15:29:37.936Z,6.63
2018-10-05T15:32:07.274Z,5.67
2018-10-05T15:34:38.660Z,9.30
2018-10-05T15:37:07.180Z,5.23
2018-10-05T15:39:35.692Z,5.53
2018-10-05T15:42:04.181Z,5.17
2018-10-05T15:44:32.638Z,7.83
2018-10-05T15:47:03.511Z,7.50
2018-10-05T15:49:33.008Z,7.90
2018-10-05T15:52:01.701Z,10.67
2018-10-05T15:54:30.292Z,6.60
2018-10-05T15:56:58.798Z,5.93
2018-10-05T15:59:27.981Z,6.93
2018-10-05T16:01:57.251Z,6.30
2018-10-05T16:04:26.505Z,6.43
2018-10-05T16:06:55.562Z,6.03
2018-10-05T16:09:24.048Z,9.33
2018-10-05T16:11:52.498Z,11.83
2018-10-05T16:14:21.003Z,9.43
2018-10-05T16:16:49.475Z,9.40
2018-10-05T16:19:18.383Z,15.43
2018-10-05T16:21:46.864Z,10.03
2018-10-05T16:24:32.884Z,10.40
2018-10-05T16:27:02.504Z,8.27
2018-10-05T16:29:31.053Z,12.17
2018-10-05T16:31:59.641Z,7.10
2018-10-05T16:34:28.160Z,8.03
2018-10-05T16:36:56.677Z,10.73
2018-10-05T16:39:25.251Z,8.40
2018-10-05T16:41:53.730Z,11.10
2018-10-05T16:44:22.224Z,8.97
2018-10-05T16:46:50.698Z,5.90
2018-10-05T16:49:19.183Z,10.73
2018-10-05T16:51:47.624Z,6.67
2018-10-05T16:54:16.226Z,11.63
2018-10-05T16:56:44.832Z,7.93
2018-10-05T16:59:13.323Z,8.37
2018-10-05T17:01:41.828Z,12.30
2018-10-05T17:04:10.368Z,8.93
2018-10-05T17:06:38.833Z,13.03
2018-10-05T17:09:10.517Z,10.23
2018-10-05T17:11:44.340Z,7.00
2018-10-05T17:14:12.875Z,21.07
2018-10-05T17:16:41.595Z,11.77
2018-10-05T17:19:10.084Z,15.10
2018-10-05T17:21:38.590Z,7.60
2018-10-05T17:24:07.089Z,9.90
2018-10-05T17:26:35.589Z,13.37
2018-10-05T17:29:04.041Z,7.43
2018-10-05T17:31:32.504Z,8.00
2018-10-05T17:34:01.053Z,7.73
2018-10-05T17:36:29.855Z,9.70
2018-10-05T17:38:58.476Z,12.40
2018-10-05T17:41:27.335Z,11.30
2018-10-05T17:43:55.907Z,8.83
2018-10-05T17:46:24.355Z,7.47
2018-10-05T17:48:52.858Z,10.00
2018-10-05T17:51:21.536Z,10.63
2018-10-05T17:53:50.090Z,8.73
2018-10-05T17:56:18.707Z,8.57
2018-10-05T17:58:47.166Z,8.70
2018-10-05T18:01:15.859Z,9.50
2018-10-05T18:03:44.351Z,7.87
2018-10-05T18:06:13.739Z,12.20
2018-10-05T18:08:42.349Z,9.80
2018-10-05T18:11:10.824Z,8.40
2018-10-05T18:13:39.388Z,9.50
2018-10-05T18:16:07.885Z,8.57
2018-10-05T18:18:36.393Z,8.53
2018-10-05T18:21:05.391Z,12.70
2018-10-05T18:23:33.906Z,13.67
2018-10-05T18:26:02.456Z,9.23
2018-10-05T18:28:30.905Z,16.23
2018-10-05T18:30:59.446Z,10.27
2018-10-05T18:33:27.920Z,14.20
2018-10-05T18:35:56.402Z,11.33
2018-10-05T18:38:24.893Z,13.33
2018-10-05T18:40:53.344Z,10.33
2018-10-05T18:43:21.802Z,12.53
2018-10-05T18:45:50.550Z,11.50
2018-10-05T18:48:19.133Z,12.07
2018-10-05T18:50:47.621Z,11.63
2018-10-05T18:53:16.120Z,9.17
2018-10-05T18:55:45.400Z,10.03
2018-10-05T18:58:13.892Z,11.30
2018-10-05T19:00:42.402Z,8.50
2018-10-05T19:03:10.988Z,9.87
2018-10-05T19:05:40.298Z,15.30
2018-10-05T19:08:09.062Z,10.27
2018-10-05T19:10:37.677Z,12.67
2018-10-05T19:13:06.205Z,7.80
2018-10-05T19:15:34.727Z,13.50
2018-10-05T19:18:03.367Z,10.63
2018-10-05T19:20:31.903Z,10.93
2018-10-05T19:23:00.552Z,11.83
2018-10-05T19:25:29.069Z,8.10
2018-10-05T19:27:57.577Z,10.93
2018-10-05T19:30:26.049Z,13.33
2018-10-05T19:32:54.637Z,11.60
2018-10-05T19:35:23.345Z,11.10
2018-10-05T19:37:52.009Z,8.10
2018-10-05T19:40:20.596Z,11.87
2018-10-05T19:42:49.115Z,12.63
2018-10-05T19:45:17.733Z,11.40
2018-10-05T19:47:46.345Z,11.70
2018-10-05T19:50:15.151Z,13.80
2018-10-05T19:52:43.673Z,10.30
2018-10-05T19:55:12.223Z,13.50
2018-10-05T19:57:40.912Z,11.23
2018-10-05T20:00:09.467Z,9.47
2018-10-05T20:02:38.380Z,7.80
2018-10-05T20:05:06.987Z,12.13
2018-10-05T20:07:35.605Z,13.00
2018-10-05T20:10:04.391Z,11.00
2018-10-05T20:12:32.908Z,11.70
2018-10-05T20:15:01.460Z,13.87
2018-10-05T20:17:30.030Z,12.73
2018-10-05T20:19:58.523Z,10.80
2018-10-05T20:22:27.196Z,10.77
2018-10-05T20:24:55.976Z,12.67
2018-10-05T20:27:24.585Z,11.20
2018-10-05T20:29:53.063Z,18.50
2018-10-05T20:32:21.651Z,13.07
2018-10-05T20:34:50.156Z,15.23
2018-10-05T20:37:19.472Z,11.97
2018-10-05T20:39:48.203Z,16.03
2018-10-05T20:42:16.812Z,11.67
2018-10-05T20:44:45.409Z,13.73
2018-10-05T20:47:13.866Z,12.57
2018-10-05T20:49:42.304Z,22.17
2018-10-05T20:52:10.921Z,14.77
2018-10-05T20:54:39.494Z,10.30
2018-10-05T20:57:08.144Z,13.13
2018-10-05T20:59:36.629Z,15.77
2018-10-05T21:02:05.320Z,11.37
2018-10-05T21:04:33.828Z,16.47
2018-10-05T21:07:02.391Z,17.83
2018-10-05T21:09:30.923Z,17.13
2018-10-05T21:12:00.363Z,13.80
2018-10-05T21:14:28.974Z,12.47
2018-10-05T21:16:57.468Z,11.43
2018-10-05T21:19:25.938Z,19.33
2018-10-05T21:21:55.248Z,23.30
2018-10-05T21:24:23.800Z,15.47
2018-10-05T21:26:52.355Z,19.57
2018-10-05T21:29:20.905Z,14.50
2018-10-05T21:31:49.414Z,20.37
2018-10-05T21:34:18.131Z,18.50
2018-10-05T21:36:46.616Z,20.67
2018-10-05T21:39:15.094Z,16.77
2018-10-05T21:41:43.631Z,16.90
2018-10-05T21:44:12.109Z,17.57
2018-10-05T21:46:40.832Z,20.23
2018-10-05T21:49:09.432Z,24.70
2018-10-05T21:51:37.949Z,14.17
2018-10-05T21:54:06.408Z,22.77
2018-10-05T21:56:34.940Z,14.10
2018-10-05T21:59:03.604Z,18.90
2018-10-05T22:01:32.125Z,16.43
2018-10-05T22:04:00.637Z,16.37
2018-10-05T22:06:29.183Z,20.20
2018-10-05T22:08:57.700Z,16.83
2018-10-05T22:11:26.208Z,14.20
2018-10-05T22:13:55.138Z,16.67
2018-10-05T22:16:23.654Z,16.33
2018-10-05T22:18:52.165Z,13.87
2018-10-05T22:21:20.636Z,13.73
2018-10-05T22:23:49.197Z,13.83
2018-10-05T22:26:17.657Z,14.90
2018-10-05T22:28:46.141Z,17.40
2018-10-05T22:31:14.663Z,15.30
2018-10-05T22:33:43.116Z,19.63
2018-10-05T22:36:11.625Z,19.17
2018-10-05T22:38:40.079Z,19.77
2018-10-05T22:41:08.578Z,19.37
2018-10-05T22:43:37.517Z,19.17
2018-10-05T22:46:06.093Z,16.60
2018-10-05T22:48:34.570Z,11.07
2018-10-05T22:51:03.256Z,15.73
2018-10-05T22:53:31.737Z,16.80
2018-10-05T22:56:00.175Z,18.00
2018-10-05T22:58:28.662Z,21.47
2018-10-05T23:00:57.194Z,19.57
2018-10-05T23:03:25.792Z,15.47
2018-10-05T23:05:54.346Z,18.57
2018-10-05T23:08:22.895Z,16.20
2018-10-05T23:10:51.366Z,15.53
2018-10-05T23:13:19.829Z,17.13
2018-10-05T23:15:48.282Z,20.10
2018-10-05T23:18:17.412Z,23.07
2018-10-05T23:20:46.047Z,14.73
2018-10-05T23:23:14.507Z,15.87
2018-10-05T23:25:42.968Z,16.20
2018-10-05T23:28:11.471Z,16.40
2018-10-05T23:30:39.914Z,16.43
2018-10-05T23:33:08.515Z,16.43
2018-10-05T23:35:37.066Z,14.67
2018-10-05T23:38:06.437Z,15.87
2018-10-05T23:40:35.016Z,23.57
2018-10-05T23:43:04.179Z,15.53
2018-10-05T23:45:32.664Z,19.47
2018-10-05T23:48:01.110Z,22.23
2018-10-05T23:50:29.667Z,16.10
2018-10-05T23:52:58.304Z,14.57
2018-10-05T23:55:26.913Z,18.90
2018-10-05T23:57:55.409Z,15.97
